sensor_id;sensor_type;location;lat;lon;timestamp;temperature;humidity
60860;DHT22;46694;54.382;9.708;2024-03-17T18:39:26;6.00;99.90
60860;DHT22;46694;54.382;9.708;2024-03-17T18:41:52;6.60;99.90
60860;DHT22;46694;54.382;9.708;2024-03-17T18:44:17;6.40;99.90
60860;DHT22;46694;54.382;9.708;2024-03-17T18:46:43;6.30;99.90
60860;DHT22;46694;54.382;9.708;2024-03-17T18:49:09;6.20;99.90
60860;DHT22;46694;54.382;9.708;2024-03-17T18:51:36;6.10;99.90
60860;DHT22;46694;54.382;9.708;2024-03-17T18:54:02;6.00;99.90
60860;DHT22;46694;54.382;9.708;2024-03-17T18:56:28;5.90;99.90
60860;DHT22;46694;54.382;9.708;2024-03-17T18:58:54;5.90;99.90
60860;DHT22;46694;54.382;9.708;2024-03-17T19:01:20;5.80;99.90
60860;DHT22;46694;54.382;9.708;2024-03-17T19:03:47;5.80;99.90
60860;DHT22;46694;54.382;9.708;2024-03-17T19:06:14;5.70;99.90
60860;DHT22;46694;54.382;9.708;2024-03-17T19:08:42;5.70;99.90
60860;DHT22;46694;54.382;9.708;2024-03-17T19:11:10;5.70;99.90
60860;DHT22;46694;54.382;9.708;2024-03-17T19:13:38;5.60;99.90
60860;DHT22;46694;54.382;9.708;2024-03-17T19:16:07;5.60;99.90
60860;DHT22;46694;54.382;9.708;2024-03-17T19:18:36;5.60;99.90
60860;DHT22;46694;54.382;9.708;2024-03-17T19:23:39;5.60;99.90
60860;DHT22;46694;54.382;9.708;2024-03-17T19:26:14;5.50;99.90
60860;DHT22;46694;54.382;9.708;2024-03-17T19:28:49;5.50;99.90
60860;DHT22;46694;54.382;9.708;2024-03-17T19:31:21;5.50;99.90
60860;DHT22;46694;54.382;9.708;2024-03-17T19:33:51;5.50;99.90
60860;DHT22;46694;54.382;9.708;2024-03-17T19:36:17;5.50;99.90
60860;DHT22;46694;54.382;9.708;2024-03-17T19:38:43;5.40;99.90
60860;DHT22;46694;54.382;9.708;2024-03-17T19:41:12;5.40;99.90
60860;DHT22;46694;54.382;9.708;2024-03-17T19:43:38;5.30;99.90
60860;DHT22;46694;54.382;9.708;2024-03-17T19:46:08;5.30;99.90
60860;DHT22;46694;54.382;9.708;2024-03-17T19:48:42;5.30;99.90
60860;DHT22;46694;54.382;9.708;2024-03-17T19:51:22;5.20;99.90
60860;DHT22;46694;54.382;9.708;2024-03-17T19:53:50;5.20;99.90
60860;DHT22;46694;54.382;9.708;2024-03-17T19:56:16;5.20;99.90
60860;DHT22;46694;54.382;9.708;2024-03-17T19:58:44;5.20;99.90
60860;DHT22;46694;54.382;9.708;2024-03-17T20:01:10;5.20;99.90
60860;DHT22;46694;54.382;9.708;2024-03-17T20:03:38;5.20;99.90
60860;DHT22;46694;54.382;9.708;2024-03-17T20:06:06;5.20;99.90
60860;DHT22;46694;54.382;9.708;2024-03-17T20:12:00;5.20;99.90
60860;DHT22;46694;54.382;9.708;2024-03-17T20:14:25;5.10;99.90
60860;DHT22;46694;54.382;9.708;2024-03-17T20:16:52;5.10;99.90
60860;DHT22;46694;54.382;9.708;2024-03-17T20:19:17;5.10;99.90
60860;DHT22;46694;54.382;9.708;2024-03-17T20:21:43;5.10;99.90
60860;DHT22;46694;54.382;9.708;2024-03-17T20:24:09;5.10;99.90
60860;DHT22;46694;54.382;9.708;2024-03-17T20:26:35;5.10;99.90
60860;DHT22;46694;54.382;9.708;2024-03-17T20:29:02;5.10;99.90
60860;DHT22;46694;54.382;9.708;2024-03-17T20:31:29;5.10;99.90
60860;DHT22;46694;54.382;9.708;2024-03-17T20:33:56;5.10;99.90
60860;DHT22;46694;54.382;9.708;2024-03-17T20:36:22;5.10;99.90
60860;DHT22;46694;54.382;9.708;2024-03-17T20:38:52;5.10;99.90
60860;DHT22;46694;54.382;9.708;2024-03-17T20:41:18;5.10;99.90
60860;DHT22;46694;54.382;9.708;2024-03-17T20:43:45;5.10;99.90
60860;DHT22;46694;54.382;9.708;2024-03-17T20:46:11;5.10;99.90
60860;DHT22;46694;54.382;9.708;2024-03-17T20:48:37;5.10;99.90
60860;DHT22;46694;54.382;9.708;2024-03-17T20:51:04;5.00;99.90
60860;DHT22;46694;54.382;9.708;2024-03-17T20:53:32;5.00;99.90
60860;DHT22;46694;54.382;9.708;2024-03-17T20:56:02;5.00;99.90
60860;DHT22;46694;54.382;9.708;2024-03-17T20:58:31;5.10;99.90
60860;DHT22;46694;54.382;9.708;2024-03-17T21:00:57;5.10;99.90
60860;DHT22;46694;54.382;9.708;2024-03-17T21:03:23;5.10;99.90
60860;DHT22;46694;54.382;9.708;2024-03-17T21:05:50;5.00;99.90
60860;DHT22;46694;54.382;9.708;2024-03-17T21:08:16;5.00;99.90
60860;DHT22;46694;54.382;9.708;2024-03-17T21:10:43;5.00;99.90
60860;DHT22;46694;54.382;9.708;2024-03-17T21:13:09;5.00;99.90
60860;DHT22;46694;54.382;9.708;2024-03-17T21:15:35;5.00;99.90
60860;DHT22;46694;54.382;9.708;2024-03-17T21:18:01;4.90;99.90
60860;DHT22;46694;54.382;9.708;2024-03-17T21:20:26;4.90;99.90
60860;DHT22;46694;54.382;9.708;2024-03-17T21:22:52;4.90;99.90
60860;DHT22;46694;54.382;9.708;2024-03-17T21:25:23;4.90;99.90
60860;DHT22;46694;54.382;9.708;2024-03-17T21:27:48;4.90;99.90
60860;DHT22;46694;54.382;9.708;2024-03-17T21:30:16;4.90;99.90
60860;DHT22;46694;54.382;9.708;2024-03-17T21:32:45;4.90;99.90
60860;DHT22;46694;54.382;9.708;2024-03-17T21:35:12;4.80;99.90
60860;DHT22;46694;54.382;9.708;2024-03-17T21:37:38;4.80;99.90
60860;DHT22;46694;54.382;9.708;2024-03-17T21:40:07;4.80;99.90
60860;DHT22;46694;54.382;9.708;2024-03-17T21:42:39;4.80;99.90
60860;DHT22;46694;54.382;9.708;2024-03-17T21:45:08;4.70;99.90
60860;DHT22;46694;54.382;9.708;2024-03-17T21:47:38;4.70;99.90
60860;DHT22;46694;54.382;9.708;2024-03-17T21:50:07;4.70;99.90
60860;DHT22;46694;54.382;9.708;2024-03-17T21:52:39;4.70;99.90
60860;DHT22;46694;54.382;9.708;2024-03-17T21:55:06;4.60;99.90
60860;DHT22;46694;54.382;9.708;2024-03-17T21:57:36;4.60;99.90
60860;DHT22;46694;54.382;9.708;2024-03-17T22:00:03;4.60;99.90
60860;DHT22;46694;54.382;9.708;2024-03-17T22:02:31;4.60;99.90
60860;DHT22;46694;54.382;9.708;2024-03-17T22:04:56;4.60;99.90
60860;DHT22;46694;54.382;9.708;2024-03-17T22:07:22;4.50;99.90
60860;DHT22;46694;54.382;9.708;2024-03-17T22:09:48;4.60;99.90
60860;DHT22;46694;54.382;9.708;2024-03-17T22:12:14;4.50;99.90
60860;DHT22;46694;54.382;9.708;2024-03-17T22:14:40;4.50;99.90
60860;DHT22;46694;54.382;9.708;2024-03-17T22:17:06;4.50;99.90
60860;DHT22;46694;54.382;9.708;2024-03-17T22:19:32;4.50;99.90
60860;DHT22;46694;54.382;9.708;2024-03-17T22:21:59;4.50;99.90
60860;DHT22;46694;54.382;9.708;2024-03-17T22:24:25;4.50;99.90
60860;DHT22;46694;54.382;9.708;2024-03-17T22:26:51;4.50;99.90
60860;DHT22;46694;54.382;9.708;2024-03-17T22:29:16;4.50;99.90
60860;DHT22;46694;54.382;9.708;2024-03-17T22:31:47;4.50;99.90
60860;DHT22;46694;54.382;9.708;2024-03-17T22:34:14;4.50;99.90
60860;DHT22;46694;54.382;9.708;2024-03-17T22:36:39;4.50;99.90
60860;DHT22;46694;54.382;9.708;2024-03-17T22:39:05;4.50;99.90
60860;DHT22;46694;54.382;9.708;2024-03-17T22:41:32;4.50;99.90
60860;DHT22;46694;54.382;9.708;2024-03-17T22:43:57;4.50;99.90
60860;DHT22;46694;54.382;9.708;2024-03-17T22:46:23;4.50;99.90
60860;DHT22;46694;54.382;9.708;2024-03-17T22:48:49;4.50;99.90
60860;DHT22;46694;54.382;9.708;2024-03-17T22:51:15;4.50;99.90
60860;DHT22;46694;54.382;9.708;2024-03-17T22:53:45;4.50;99.90
60860;DHT22;46694;54.382;9.708;2024-03-17T22:56:11;4.60;99.90
60860;DHT22;46694;54.382;9.708;2024-03-17T22:58:37;4.50;99.90
60860;DHT22;46694;54.382;9.708;2024-03-17T23:01:08;4.50;99.90
60860;DHT22;46694;54.382;9.708;2024-03-17T23:03:35;4.50;99.90
60860;DHT22;46694;54.382;9.708;2024-03-17T23:06:02;4.60;99.90
60860;DHT22;46694;54.382;9.708;2024-03-17T23:08:29;4.60;99.90
60860;DHT22;46694;54.382;9.708;2024-03-17T23:11:04;4.60;99.90
60860;DHT22;46694;54.382;9.708;2024-03-17T23:13:37;4.60;99.90
60860;DHT22;46694;54.382;9.708;2024-03-17T23:19:25;4.60;99.90
60860;DHT22;46694;54.382;9.708;2024-03-17T23:21:50;4.50;99.90
60860;DHT22;46694;54.382;9.708;2024-03-17T23:24:16;4.50;99.90
60860;DHT22;46694;54.382;9.708;2024-03-17T23:26:42;4.50;99.90
60860;DHT22;46694;54.382;9.708;2024-03-17T23:29:08;4.50;99.90
60860;DHT22;46694;54.382;9.708;2024-03-17T23:31:34;4.50;99.90
60860;DHT22;46694;54.382;9.708;2024-03-17T23:33:59;4.50;99.90
60860;DHT22;46694;54.382;9.708;2024-03-17T23:36:27;4.50;99.90
60860;DHT22;46694;54.382;9.708;2024-03-17T23:38:53;4.50;99.90
60860;DHT22;46694;54.382;9.708;2024-03-17T23:41:21;4.50;99.90
60860;DHT22;46694;54.382;9.708;2024-03-17T23:43:46;4.50;99.90
60860;DHT22;46694;54.382;9.708;2024-03-17T23:46:12;4.50;99.90
60860;DHT22;46694;54.382;9.708;2024-03-17T23:48:39;4.50;99.90
60860;DHT22;46694;54.382;9.708;2024-03-17T23:51:05;4.50;99.90
60860;DHT22;46694;54.382;9.708;2024-03-17T23:53:30;4.50;99.90
60860;DHT22;46694;54.382;9.708;2024-03-17T23:55:56;4.50;99.90
60860;DHT22;46694;54.382;9.708;2024-03-17T23:58:22;4.50;99.90
